Time;durP1;ratioP1;P1;durP2;ratioP2;P2;SDS_P1;SDS_P2;PMS_P1;PMS_P2;Temp;Humidity;BMP_temperature;BMP_pressure;BME280_temperature;BME280_humidity;BME280_pressure;Samples;Min_cycle;Max_cycle;Signal;HPM_P1;HPM_P2
2022/05/11 00:00:49;;;;;;;;;;;;;;;;;;5071799;28;891;-69
2022/05/11 00:03:14;;;;;;;;;;;;;;;;;;5053995;28;1314;-70
2022/05/11 00:05:39;;;;;;;;;;;;;;;;;;5071886;28;817;-69
2022/05/11 00:08:05;;;;;;;;;;;;;;;;;;5071578;28;825;-69
2022/05/11 00:10:31;;;;;;;;;;;;;;;;;;5072018;28;778;-69
2022/05/11 00:12:57;;;;;;;;;;;;;;;;;;5072440;28;1902;-69
2022/05/11 00:15:23;;;;;;;;;;;;;;;;;;5072574;28;817;-70
2022/05/11 00:17:48;;;;;;;;;;;;;;;;;;5054647;28;1147;-69
2022/05/11 00:20:15;;;;;;;;;;;;;;;;;;5073203;28;966;-69
2022/05/11 00:22:40;;;;;;;;;;;;;;;;;;5073072;28;889;-70
2022/05/11 00:25:07;;;;;;;;;;;;;;;;;;5038528;28;1417;-69
2022/05/11 00:27:32;;;;;;;;;;;;;;;;;;5054906;28;1491;-70
2022/05/11 00:29:58;;;;;;;;;;;;;;;;;;5073308;28;995;-70
2022/05/11 00:32:25;;;;;;;;;;;;;;;;;;5038487;28;1952;-69
2022/05/11 00:34:50;;;;;;;;;;;;;;;;;;5073052;28;833;-69
2022/05/11 00:37:16;;;;;;;;;;;;;;;;;;5072868;28;888;-69
2022/05/11 00:39:41;;;;;;;;;;;;;;;;;;5072919;28;848;-70
2022/05/11 00:42:07;;;;;;;;;;;;;;;;;;5057144;28;1395;-69
2022/05/11 00:44:32;;;;;;;;;;;;;;;;;;5073182;28;951;-70
2022/05/11 00:46:58;;;;;;;;;;;;;;;;;;5072471;28;830;-70
2022/05/11 00:49:35;;;;;;;;;;;;;;;;;;5071727;28;896;-70
2022/05/11 00:52:06;;;;;;;;;;;;;;;;;;5053772;28;1955;-70
2022/05/11 00:54:34;;;;;;;;;;;;;;;;;;5071482;28;841;-70
2022/05/11 00:57:02;;;;;;;;;;;;;;;;;;5053736;28;1315;-70
2022/05/11 00:59:31;;;;;;;;;;;;;;;;;;5053216;28;1224;-70
2022/05/11 01:01:59;;;;;;;;;;;;;;;;;;5071401;28;845;-70
2022/05/11 01:04:24;;;;;;;;;;;;;;;;;;5072258;28;777;-70
2022/05/11 01:06:50;;;;;;;;;;;;;;;;;;5053471;28;1150;-69
2022/05/11 01:09:15;;;;;;;;;;;;;;;;;;5070940;28;723;-70
2022/05/11 01:11:45;;;;;;;;;;;;;;;;;;5052931;28;1886;-70
2022/05/11 01:14:12;;;;;;;;;;;;;;;;;;5071545;28;1027;-70
2022/05/11 01:16:38;;;;;;;;;;;;;;;;;;5071104;28;915;-70
2022/05/11 01:19:04;;;;;;;;;;;;;;;;;;5071071;28;924;-70
2022/05/11 01:21:40;;;;;;;;;;;;;;;;;;5057036;28;1512;-70
2022/05/11 01:24:24;;;;;;;;;;;;;;;;;;5057516;28;1419;-65
2022/05/11 01:26:50;;;;;;;;;;;;;;;;;;5075216;28;1034;-65
2022/05/11 01:29:15;;;;;;;;;;;;;;;;;;5075188;28;812;-66
2022/05/11 01:31:40;;;;;;;;;;;;;;;;;;5057028;28;1901;-67
2022/05/11 01:34:06;;;;;;;;;;;;;;;;;;5075404;28;832;-66
2022/05/11 01:36:34;;;;;;;;;;;;;;;;;;5075010;28;1003;-66
2022/05/11 01:39:00;;;;;;;;;;;;;;;;;;5075058;28;907;-66
2022/05/11 01:41:32;;;;;;;;;;;;;;;;;;5057351;28;1362;-66
2022/05/11 01:43:57;;;;;;;;;;;;;;;;;;5074926;28;790;-66
2022/05/11 01:46:23;;;;;;;;;;;;;;;;;;5076036;28;923;-66
2022/05/11 01:48:48;;;;;;;;;;;;;;;;;;5074129;28;841;-67
2022/05/11 01:51:14;;;;;;;;;;;;;;;;;;5075097;28;1065;-66
2022/05/11 01:53:40;;;;;;;;;;;;;;;;;;5074612;28;1898;-66
2022/05/11 01:56:06;;;;;;;;;;;;;;;;;;5075051;28;745;-66
2022/05/11 01:58:32;;;;;;;;;;;;;;;;;;5056850;28;1331;-66
2022/05/11 02:00:58;;;;;;;;;;;;;;;;;;5056490;28;1417;-66
2022/05/11 02:03:23;;;;;;;;;;;;;;;;;;5075124;28;872;-66
2022/05/11 02:08:34;;;;;;;;;;;;;;;;;;5075270;28;709;-66
2022/05/11 02:11:00;;;;;;;;;;;;;;;;;;5056583;28;1231;-66
2022/05/11 02:13:26;;;;;;;;;;;;;;;;;;5075122;28;1955;-66
2022/05/11 02:15:51;;;;;;;;;;;;;;;;;;5074530;28;830;-67
2022/05/11 02:18:17;;;;;;;;;;;;;;;;;;5056486;28;1000;-66
2022/05/11 02:20:42;;;;;;;;;;;;;;;;;;5056383;28;1192;-66
2022/05/11 02:23:08;;;;;;;;;;;;;;;;;;5057218;28;1196;-66
2022/05/11 02:25:33;;;;;;;;;;;;;;;;;;5074680;28;1242;-66
2022/05/11 02:27:58;;;;;;;;;;;;;;;;;;5056304;28;833;-66
2022/05/11 02:30:25;;;;;;;;;;;;;;;;;;5056325;28;1047;-66
2022/05/11 02:32:51;;;;;;;;;;;;;;;;;;5074000;28;1906;-67
2022/05/11 02:35:17;;;;;;;;;;;;;;;;;;5056413;28;1183;-65
2022/05/11 02:37:50;;;;;;;;;;;;;;;;;;5056199;28;1315;-66
2022/05/11 02:40:17;;;;;;;;;;;;;;;;;;5074363;28;865;-66
2022/05/11 02:42:43;;;;;;;;;;;;;;;;;;5073859;28;884;-66
2022/05/11 02:45:09;;;;;;;;;;;;;;;;;;5056278;28;1293;-66
2022/05/11 02:47:34;;;;;;;;;;;;;;;;;;5056143;28;1203;-66
2022/05/11 02:49:59;;;;;;;;;;;;;;;;;;5055579;28;1302;-66
2022/05/11 02:52:25;;;;;;;;;;;;;;;;;;5056167;28;1961;-67
2022/05/11 02:54:50;;;;;;;;;;;;;;;;;;5073358;28;920;-67
2022/05/11 02:57:19;;;;;;;;;;;;;;;;;;5039236;28;1216;-67
2022/05/11 02:59:45;;;;;;;;;;;;;;;;;;5055125;28;1240;-67
2022/05/11 03:02:10;;;;;;;;;;;;;;;;;;5055582;28;854;-67
2022/05/11 03:04:36;;;;;;;;;;;;;;;;;;5055410;28;1344;-67
2022/05/11 03:07:01;;;;;;;;;;;;;;;;;;5055293;28;1190;-67
2022/05/11 03:09:26;;;;;;;;;;;;;;;;;;5055273;28;916;-67
2022/05/11 03:11:52;;;;;;;;;;;;;;;;;;5038169;28;1902;-67
2022/05/11 03:14:17;;;;;;;;;;;;;;;;;;5055662;28;1122;-67
2022/05/11 03:16:43;;;;;;;;;;;;;;;;;;5054888;28;1341;-67
2022/05/11 03:19:08;;;;;;;;;;;;;;;;;;5038597;28;1035;-67
2022/05/11 03:21:34;;;;;;;;;;;;;;;;;;5055126;28;1239;-67
2022/05/11 03:24:00;;;;;;;;;;;;;;;;;;5054780;28;1052;-67
2022/05/11 03:26:25;;;;;;;;;;;;;;;;;;5073042;28;845;-66
2022/05/11 03:28:50;;;;;;;;;;;;;;;;;;5072537;28;786;-66
2022/05/11 03:31:16;;;;;;;;;;;;;;;;;;5072831;28;912;-66
2022/05/11 03:36:26;;;;;;;;;;;;;;;;;;5072853;28;678;-67
2022/05/11 03:38:51;;;;;;;;;;;;;;;;;;5072399;28;999;-66
2022/05/11 03:41:17;;;;;;;;;;;;;;;;;;5073152;28;916;-66
2022/05/11 03:43:42;;;;;;;;;;;;;;;;;;5071748;28;822;-66
2022/05/11 03:46:08;;;;;;;;;;;;;;;;;;5054830;28;1240;-66
2022/05/11 03:48:33;;;;;;;;;;;;;;;;;;5055087;28;775;-67
2022/05/11 03:50:58;;;;;;;;;;;;;;;;;;5072874;28;943;-65
2022/05/11 03:53:24;;;;;;;;;;;;;;;;;;5073099;28;1956;-67
2022/05/11 03:55:49;;;;;;;;;;;;;;;;;;5072676;28;1019;-67
2022/05/11 03:58:14;;;;;;;;;;;;;;;;;;5073342;28;1073;-65
2022/05/11 04:00:40;;;;;;;;;;;;;;;;;;5072972;28;841;-66
2022/05/11 04:03:05;;;;;;;;;;;;;;;;;;5072986;28;1009;-66
2022/05/11 04:05:32;;;;;;;;;;;;;;;;;;5072624;28;766;-66
2022/05/11 04:07:57;;;;;;;;;;;;;;;;;;5072605;28;927;-66
2022/05/11 04:10:22;;;;;;;;;;;;;;;;;;5072736;28;995;-66
2022/05/11 04:12:48;;;;;;;;;;;;;;;;;;5054176;28;1961;-66
2022/05/11 04:15:14;;;;;;;;;;;;;;;;;;5071937;28;860;-67
2022/05/11 04:17:39;;;;;;;;;;;;;;;;;;5072466;28;849;-67
2022/05/11 04:20:05;;;;;;;;;;;;;;;;;;5036845;28;1184;-66
2022/05/11 04:22:30;;;;;;;;;;;;;;;;;;5072095;28;1371;-66
2022/05/11 04:24:57;;;;;;;;;;;;;;;;;;5071505;28;1178;-66
2022/05/11 04:27:23;;;;;;;;;;;;;;;;;;5053925;28;1205;-66
2022/05/11 04:29:48;;;;;;;;;;;;;;;;;;5054444;28;786;-66
2022/05/11 04:32:14;;;;;;;;;;;;;;;;;;5072276;28;1910;-66
2022/05/11 04:34:40;;;;;;;;;;;;;;;;;;5037669;28;1306;-66
2022/05/11 04:37:06;;;;;;;;;;;;;;;;;;5053382;28;1444;-66
2022/05/11 04:39:31;;;;;;;;;;;;;;;;;;5071676;28;928;-66
2022/05/11 04:41:57;;;;;;;;;;;;;;;;;;5071485;28;1236;-67
2022/05/11 04:44:22;;;;;;;;;;;;;;;;;;5053789;28;1371;-67
2022/05/11 04:46:47;;;;;;;;;;;;;;;;;;5071467;28;860;-66
2022/05/11 04:49:23;;;;;;;;;;;;;;;;;;5036948;28;1481;-66
2022/05/11 04:51:49;;;;;;;;;;;;;;;;;;5070035;28;1914;-67
2022/05/11 04:54:15;;;;;;;;;;;;;;;;;;5033569;28;844;-67
2022/05/11 04:56:41;;;;;;;;;;;;;;;;;;5051424;28;927;-67
2022/05/11 04:59:08;;;;;;;;;;;;;;;;;;5033395;28;1153;-66
2022/05/11 05:01:33;;;;;;;;;;;;;;;;;;5033027;28;1196;-66
2022/05/11 05:03:59;;;;;;;;;;;;;;;;;;5032741;28;944;-67
2022/05/11 05:06:24;;;;;;;;;;;;;;;;;;5033479;28;1076;-66
2022/05/11 05:08:51;;;;;;;;;;;;;;;;;;5016811;28;1442;-66
2022/05/11 05:11:17;;;;;;;;;;;;;;;;;;5051208;28;746;-66
2022/05/11 05:13:42;;;;;;;;;;;;;;;;;;5033290;28;1955;-67
2022/05/11 05:16:07;;;;;;;;;;;;;;;;;;5051382;28;1173;-67
2022/05/11 05:18:33;;;;;;;;;;;;;;;;;;5051557;28;785;-67
2022/05/11 05:20:58;;;;;;;;;;;;;;;;;;5051571;28;809;-66
2022/05/11 05:23:24;;;;;;;;;;;;;;;;;;5032951;28;1096;-66
2022/05/11 05:25:49;;;;;;;;;;;;;;;;;;5013555;28;1319;-66
2022/05/11 05:31:08;;;;;;;;;;;;;;;;;;5045021;28;887;-67
2022/05/11 05:33:34;;;;;;;;;;;;;;;;;;5030702;28;1918;-67
2022/05/11 05:35:59;;;;;;;;;;;;;;;;;;5031884;28;786;-66
2022/05/11 05:38:24;;;;;;;;;;;;;;;;;;5047393;28;794;-66
2022/05/11 05:40:50;;;;;;;;;;;;;;;;;;5032300;28;892;-66
2022/05/11 05:43:15;;;;;;;;;;;;;;;;;;5031789;28;774;-66
2022/05/11 05:45:45;;;;;;;;;;;;;;;;;;5030666;28;1408;-67
2022/05/11 05:48:10;;;;;;;;;;;;;;;;;;5031990;28;782;-66
2022/05/11 05:50:36;;;;;;;;;;;;;;;;;;5030116;28;1162;-66
2022/05/11 05:53:02;;;;;;;;;;;;;;;;;;5047241;28;1963;-66
2022/05/11 05:55:27;;;;;;;;;;;;;;;;;;5029902;28;1322;-66
2022/05/11 05:57:53;;;;;;;;;;;;;;;;;;5031147;28;778;-66
2022/05/11 06:00:18;;;;;;;;;;;;;;;;;;5046347;28;758;-67
2022/05/11 06:02:44;;;;;;;;;;;;;;;;;;5046044;28;833;-67
2022/05/11 06:05:09;;;;;;;;;;;;;;;;;;5045833;28;814;-66
2022/05/11 06:07:34;;;;;;;;;;;;;;;;;;5050138;28;881;-67
2022/05/11 06:09:59;;;;;;;;;;;;;;;;;;5034953;28;928;-66
2022/05/11 06:12:25;;;;;;;;;;;;;;;;;;5033531;28;1894;-66
2022/05/11 06:14:51;;;;;;;;;;;;;;;;;;5049963;28;936;-66
2022/05/11 06:17:18;;;;;;;;;;;;;;;;;;5049789;28;837;-67
2022/05/11 06:19:44;;;;;;;;;;;;;;;;;;5038510;28;1152;-67
2022/05/11 06:22:09;;;;;;;;;;;;;;;;;;5051248;28;1166;-67
2022/05/11 06:24:35;;;;;;;;;;;;;;;;;;5055335;28;1179;-67
2022/05/11 06:27:00;;;;;;;;;;;;;;;;;;5074243;28;794;-67
2022/05/11 06:29:26;;;;;;;;;;;;;;;;;;5073838;28;908;-67
2022/05/11 06:31:51;;;;;;;;;;;;;;;;;;5074060;28;1902;-67
2022/05/11 06:34:16;;;;;;;;;;;;;;;;;;5055867;28;876;-67
2022/05/11 06:36:42;;;;;;;;;;;;;;;;;;5074344;28;777;-67
2022/05/11 06:39:08;;;;;;;;;;;;;;;;;;5074259;28;841;-67
2022/05/11 06:41:33;;;;;;;;;;;;;;;;;;5074495;28;895;-66
2022/05/11 06:43:59;;;;;;;;;;;;;;;;;;5055975;28;1399;-67
2022/05/11 06:46:24;;;;;;;;;;;;;;;;;;5073868;28;911;-67
2022/05/11 06:48:49;;;;;;;;;;;;;;;;;;5054511;28;1195;-67
2022/05/11 06:51:15;;;;;;;;;;;;;;;;;;5054351;28;1215;-67
2022/05/11 06:59:21;;;;;;;;;;;;;;;;;;5074715;28;879;-67
2022/05/11 07:01:54;;;;;;;;;;;;;;;;;;5056125;28;1423;-67
2022/05/11 07:04:23;;;;;;;;;;;;;;;;;;5073789;28;813;-67
2022/05/11 07:06:52;;;;;;;;;;;;;;;;;;5039773;28;1223;-67
2022/05/11 07:09:21;;;;;;;;;;;;;;;;;;5074198;28;1022;-67
2022/05/11 07:14:30;;;;;;;;;;;;;;;;;;5074071;28;752;-67
2022/05/11 07:16:56;;;;;;;;;;;;;;;;;;5055965;28;890;-67
2022/05/11 07:19:23;;;;;;;;;;;;;;;;;;5073140;28;817;-67
2022/05/11 07:21:48;;;;;;;;;;;;;;;;;;5039278;28;1396;-67
2022/05/11 07:24:13;;;;;;;;;;;;;;;;;;5055803;28;1205;-67
2022/05/11 07:26:39;;;;;;;;;;;;;;;;;;5055172;28;1198;-67
2022/05/11 07:29:04;;;;;;;;;;;;;;;;;;5073293;28;828;-67
2022/05/11 07:31:30;;;;;;;;;;;;;;;;;;5073300;28;868;-67
2022/05/11 07:33:55;;;;;;;;;;;;;;;;;;5073464;28;1969;-67
2022/05/11 07:36:21;;;;;;;;;;;;;;;;;;5073111;28;979;-67
2022/05/11 07:38:46;;;;;;;;;;;;;;;;;;5072504;28;825;-67
2022/05/11 07:41:11;;;;;;;;;;;;;;;;;;5038645;28;1292;-67
2022/05/11 07:43:38;;;;;;;;;;;;;;;;;;5054626;28;1096;-67
2022/05/11 07:46:03;;;;;;;;;;;;;;;;;;5054273;28;1236;-67
2022/05/11 07:48:28;;;;;;;;;;;;;;;;;;5055133;28;1333;-67
2022/05/11 07:50:54;;;;;;;;;;;;;;;;;;5055232;28;924;-67
2022/05/11 07:53:19;;;;;;;;;;;;;;;;;;5072434;28;1957;-67
2022/05/11 07:55:44;;;;;;;;;;;;;;;;;;5054291;28;1230;-66
2022/05/11 08:00:55;;;;;;;;;;;;;;;;;;5072289;28;725;-67
2022/05/11 08:03:20;;;;;;;;;;;;;;;;;;5072352;28;817;-68
2022/05/11 08:05:45;;;;;;;;;;;;;;;;;;5037849;28;1453;-67
2022/05/11 08:08:11;;;;;;;;;;;;;;;;;;5054207;28;1219;-67
2022/05/11 08:10:38;;;;;;;;;;;;;;;;;;5071934;28;813;-67
2022/05/11 08:13:05;;;;;;;;;;;;;;;;;;5071577;28;1906;-67
2022/05/11 08:15:32;;;;;;;;;;;;;;;;;;5053651;28;1251;-67
2022/05/11 08:17:59;;;;;;;;;;;;;;;;;;5071260;28;1697;-67
2022/05/11 08:20:26;;;;;;;;;;;;;;;;;;5052774;28;1200;-67
2022/05/11 08:22:51;;;;;;;;;;;;;;;;;;5072170;28;1017;-67
2022/05/11 08:25:20;;;;;;;;;;;;;;;;;;5071887;28;1138;-67
2022/05/11 08:27:45;;;;;;;;;;;;;;;;;;5072129;28;857;-65
2022/05/11 08:35:40;;;;;;;;;;;;;;;;;;5072203;28;716;-67
2022/05/11 08:38:05;;;;;;;;;;;;;;;;;;5071887;28;852;-67
2022/05/11 08:40:39;;;;;;;;;;;;;;;;;;5072279;28;769;-67
2022/05/11 08:43:08;;;;;;;;;;;;;;;;;;5072266;28;919;-67
2022/05/11 08:45:42;;;;;;;;;;;;;;;;;;5053823;28;1555;-67
2022/05/11 08:48:08;;;;;;;;;;;;;;;;;;5054418;28;876;-67
2022/05/11 08:50:36;;;;;;;;;;;;;;;;;;5053747;28;1477;-67
2022/05/11 08:53:03;;;;;;;;;;;;;;;;;;5071676;28;1894;-67
2022/05/11 08:55:47;;;;;;;;;;;;;;;;;;5071926;28;809;-67
2022/05/11 08:58:19;;;;;;;;;;;;;;;;;;5070607;28;1233;-67
2022/05/11 09:00:44;;;;;;;;;;;;;;;;;;5071284;28;900;-67
2022/05/11 09:03:31;;;;;;;;;;;;;;;;;;5053923;28;1253;-67
2022/05/11 09:05:57;;;;;;;;;;;;;;;;;;5070023;28;1219;-67
2022/05/11 09:08:23;;;;;;;;;;;;;;;;;;5053412;28;1212;-67
2022/05/11 09:10:48;;;;;;;;;;;;;;;;;;5053548;28;850;-70
2022/05/11 09:13:14;;;;;;;;;;;;;;;;;;5071067;28;1969;-71
2022/05/11 09:15:45;;;;;;;;;;;;;;;;;;5053317;28;1154;-71
2022/05/11 09:18:11;;;;;;;;;;;;;;;;;;5071317;28;896;-70
2022/05/11 09:20:37;;;;;;;;;;;;;;;;;;5053093;28;1215;-71
2022/05/11 09:23:03;;;;;;;;;;;;;;;;;;5052465;28;1189;-70
2022/05/11 09:25:31;;;;;;;;;;;;;;;;;;5070621;28;1175;-71
2022/05/11 09:28:35;;;;;;;;;;;;;;;;;;5070530;28;857;-70
2022/05/11 09:31:02;;;;;;;;;;;;;;;;;;5008355;28;1241;-71
2022/05/11 09:33:29;;;;;;;;;;;;;;;;;;5008544;28;1906;-70
2022/05/11 09:35:55;;;;;;;;;;;;;;;;;;5037073;28;1403;-71
2022/05/11 09:38:20;;;;;;;;;;;;;;;;;;5052994;28;1180;-70
2022/05/11 09:40:54;;;;;;;;;;;;;;;;;;5053008;28;1253;-71
2022/05/11 09:43:26;;;;;;;;;;;;;;;;;;5074605;28;888;-71
2022/05/11 09:45:51;;;;;;;;;;;;;;;;;;5074145;28;876;-70
2022/05/11 09:48:18;;;;;;;;;;;;;;;;;;5056373;28;1304;-71
2022/05/11 09:50:44;;;;;;;;;;;;;;;;;;5056440;28;1231;-71
2022/05/11 09:53:29;;;;;;;;;;;;;;;;;;5056603;28;1888;-71
2022/05/11 09:55:55;;;;;;;;;;;;;;;;;;5055107;28;1319;-71
2022/05/11 09:58:29;;;;;;;;;;;;;;;;;;5039880;28;1191;-71
2022/05/11 10:01:05;;;;;;;;;;;;;;;;;;5056002;28;1211;-69
2022/05/11 10:03:30;;;;;;;;;;;;;;;;;;5074272;28;592;-67
2022/05/11 10:05:57;;;;;;;;;;;;;;;;;;5073973;28;825;-67
2022/05/11 10:08:33;;;;;;;;;;;;;;;;;;5056391;28;1306;-67
2022/05/11 10:11:21;;;;;;;;;;;;;;;;;;5074232;28;829;-67
2022/05/11 10:13:46;;;;;;;;;;;;;;;;;;5074005;28;1912;-67
2022/05/11 10:22:17;;;;;;;;;;;;;;;;;;5074895;28;674;-67
2022/05/11 10:24:52;;;;;;;;;;;;;;;;;;5040002;28;1320;-67
2022/05/11 10:27:36;;;;;;;;;;;;;;;;;;5057151;28;1671;-67
2022/05/11 10:30:23;;;;;;;;;;;;;;;;;;5072895;28;1401;-67
2022/05/11 10:32:51;;;;;;;;;;;;;;;;;;5074092;28;1906;-67
2022/05/11 10:35:19;;;;;;;;;;;;;;;;;;5074263;28;864;-67
2022/05/11 10:37:44;;;;;;;;;;;;;;;;;;5073626;28;923;-67
2022/05/11 10:40:17;;;;;;;;;;;;;;;;;;5074440;28;900;-67
2022/05/11 10:43:00;;;;;;;;;;;;;;;;;;5073816;28;774;-67
2022/05/11 10:45:31;;;;;;;;;;;;;;;;;;5055833;28;1180;-67
2022/05/11 10:47:56;;;;;;;;;;;;;;;;;;5055242;28;1204;-67
2022/05/11 10:50:40;;;;;;;;;;;;;;;;;;5073913;28;777;-68
2022/05/11 10:53:09;;;;;;;;;;;;;;;;;;5073126;28;1901;-65
2022/05/11 10:55:52;;;;;;;;;;;;;;;;;;5073389;28;916;-68
2022/05/11 10:58:25;;;;;;;;;;;;;;;;;;5072121;28;1187;-68
2022/05/11 11:01:04;;;;;;;;;;;;;;;;;;5054981;28;1404;-67
2022/05/11 11:03:39;;;;;;;;;;;;;;;;;;5055495;28;1507;-66
2022/05/11 11:09:02;;;;;;;;;;;;;;;;;;5073240;28;584;-65
2022/05/11 11:11:34;;;;;;;;;;;;;;;;;;5055208;28;1299;-68
2022/05/11 11:14:03;;;;;;;;;;;;;;;;;;5072483;28;1906;-67
2022/05/11 11:16:33;;;;;;;;;;;;;;;;;;5055255;28;1196;-67
2022/05/11 11:18:59;;;;;;;;;;;;;;;;;;5054152;28;1559;-66
2022/05/11 11:21:25;;;;;;;;;;;;;;;;;;5072956;28;849;-66
2022/05/11 11:24:10;;;;;;;;;;;;;;;;;;5071999;28;988;-66
2022/05/11 11:26:35;;;;;;;;;;;;;;;;;;5054362;28;1105;-66
2022/05/11 11:29:01;;;;;;;;;;;;;;;;;;5054106;28;1233;-66
2022/05/11 11:31:27;;;;;;;;;;;;;;;;;;5072802;28;805;-66
2022/05/11 11:33:52;;;;;;;;;;;;;;;;;;5072402;28;1910;-66
2022/05/11 11:36:17;;;;;;;;;;;;;;;;;;5054856;28;1143;-66
2022/05/11 11:38:43;;;;;;;;;;;;;;;;;;5072892;28;931;-67
2022/05/11 11:41:08;;;;;;;;;;;;;;;;;;5054790;28;1179;-67
2022/05/11 11:43:43;;;;;;;;;;;;;;;;;;5072285;28;786;-67
2022/05/11 11:46:08;;;;;;;;;;;;;;;;;;5072898;28;869;-67
2022/05/11 11:48:35;;;;;;;;;;;;;;;;;;5072518;28;833;-67
2022/05/11 11:51:06;;;;;;;;;;;;;;;;;;5072546;28;908;-67
2022/05/11 11:53:36;;;;;;;;;;;;;;;;;;5072942;28;1906;-67
2022/05/11 11:56:25;;;;;;;;;;;;;;;;;;5071962;28;766;-67
2022/05/11 11:59:00;;;;;;;;;;;;;;;;;;5063937;28;1178;-67
2022/05/11 12:01:26;;;;;;;;;;;;;;;;;;5072326;28;888;-67
2022/05/11 12:04:00;;;;;;;;;;;;;;;;;;5053628;28;1243;-67
2022/05/11 12:15:01;;;;;;;;;;;;;;;;;;5073000;28;686;-67
2022/05/11 12:17:37;;;;;;;;;;;;;;;;;;5057618;28;884;-67
2022/05/11 12:20:09;;;;;;;;;;;;;;;;;;5072018;28;849;-67
2022/05/11 12:22:46;;;;;;;;;;;;;;;;;;5072440;28;880;-67
2022/05/11 12:25:21;;;;;;;;;;;;;;;;;;5054005;28;1330;-67
2022/05/11 12:27:47;;;;;;;;;;;;;;;;;;5072128;28;821;-67
2022/05/11 12:30:38;;;;;;;;;;;;;;;;;;5072383;28;825;-67
2022/05/11 12:33:04;;;;;;;;;;;;;;;;;;5050447;28;1891;-67
2022/05/11 12:35:31;;;;;;;;;;;;;;;;;;5054177;28;916;-67
2022/05/11 12:38:03;;;;;;;;;;;;;;;;;;5053715;28;1310;-67
2022/05/11 12:40:30;;;;;;;;;;;;;;;;;;5072025;28;876;-67
2022/05/11 12:42:57;;;;;;;;;;;;;;;;;;5037164;28;1113;-67
2022/05/11 12:45:33;;;;;;;;;;;;;;;;;;5072109;28;810;-66
2022/05/11 12:47:59;;;;;;;;;;;;;;;;;;5053748;28;1331;-66
2022/05/11 12:50:51;;;;;;;;;;;;;;;;;;5053350;28;1235;-66
2022/05/11 12:53:16;;;;;;;;;;;;;;;;;;5050711;28;1959;-66
2022/05/11 12:55:43;;;;;;;;;;;;;;;;;;5071959;28;914;-67
2022/05/11 12:58:15;;;;;;;;;;;;;;;;;;5071527;28;880;-67
2022/05/11 13:00:40;;;;;;;;;;;;;;;;;;5053491;28;1315;-67
2022/05/11 13:03:22;;;;;;;;;;;;;;;;;;5053328;28;900;-67
2022/05/11 13:05:47;;;;;;;;;;;;;;;;;;5053479;28;1156;-67
2022/05/11 13:08:14;;;;;;;;;;;;;;;;;;5053042;28;1171;-67
2022/05/11 13:10:40;;;;;;;;;;;;;;;;;;5071809;28;911;-67
2022/05/11 13:13:11;;;;;;;;;;;;;;;;;;5071706;28;1929;-66
2022/05/11 13:15:44;;;;;;;;;;;;;;;;;;5075607;28;975;-67
2022/05/11 13:18:11;;;;;;;;;;;;;;;;;;5078081;28;880;-67
2022/05/11 13:20:38;;;;;;;;;;;;;;;;;;5060245;28;1445;-67
2022/05/11 13:23:07;;;;;;;;;;;;;;;;;;5077942;28;916;-67
2022/05/11 13:25:45;;;;;;;;;;;;;;;;;;5060300;28;1359;-66
2022/05/11 13:28:12;;;;;;;;;;;;;;;;;;5060300;28;1498;-67
2022/05/11 13:30:42;;;;;;;;;;;;;;;;;;5078590;28;790;-66
2022/05/11 13:33:26;;;;;;;;;;;;;;;;;;5077932;28;1967;-66
2022/05/11 13:36:28;;;;;;;;;;;;;;;;;;5078462;28;975;-67
2022/05/11 13:39:01;;;;;;;;;;;;;;;;;;5016072;28;1190;-67
2022/05/11 13:41:28;;;;;;;;;;;;;;;;;;5068464;28;937;-67
2022/05/11 13:44:00;;;;;;;;;;;;;;;;;;5078287;28;762;-67
2022/05/11 13:46:30;;;;;;;;;;;;;;;;;;5078500;28;810;-67
2022/05/11 13:49:15;;;;;;;;;;;;;;;;;;5078609;28;802;-67
2022/05/11 13:51:41;;;;;;;;;;;;;;;;;;5060750;28;1364;-67
2022/05/11 13:54:21;;;;;;;;;;;;;;;;;;5043258;28;1965;-67
2022/05/11 13:57:05;;;;;;;;;;;;;;;;;;5078862;28;822;-67
2022/05/11 13:59:31;;;;;;;;;;;;;;;;;;5078133;28;833;-67
2022/05/11 14:01:57;;;;;;;;;;;;;;;;;;5059891;28;1196;-66
2022/05/11 14:04:31;;;;;;;;;;;;;;;;;;5078081;28;1247;-67
2022/05/11 14:06:59;;;;;;;;;;;;;;;;;;5060350;28;1300;-67
2022/05/11 14:09:25;;;;;;;;;;;;;;;;;;5060072;28;1180;-67
2022/05/11 14:11:50;;;;;;;;;;;;;;;;;;5078147;28;762;-67
2022/05/11 14:14:15;;;;;;;;;;;;;;;;;;5078533;28;1963;-67
2022/05/11 14:16:41;;;;;;;;;;;;;;;;;;5078348;28;769;-67
2022/05/11 14:19:07;;;;;;;;;;;;;;;;;;5043493;28;1343;-67
2022/05/11 14:21:35;;;;;;;;;;;;;;;;;;5077210;28;1224;-67
2022/05/11 14:24:01;;;;;;;;;;;;;;;;;;5075329;28;1145;-67
2022/05/11 14:26:26;;;;;;;;;;;;;;;;;;5075047;28;1144;-66
2022/05/11 14:28:51;;;;;;;;;;;;;;;;;;5074524;28;832;-67
2022/05/11 14:31:18;;;;;;;;;;;;;;;;;;5074810;28;797;-67
2022/05/11 14:33:44;;;;;;;;;;;;;;;;;;5074659;28;1940;-67
2022/05/11 14:36:09;;;;;;;;;;;;;;;;;;5040250;28;1430;-67
2022/05/11 14:38:34;;;;;;;;;;;;;;;;;;5056292;28;900;-67
2022/05/11 14:41:00;;;;;;;;;;;;;;;;;;5074540;28;947;-67
2022/05/11 14:43:25;;;;;;;;;;;;;;;;;;5056149;28;1298;-67
2022/05/11 14:45:53;;;;;;;;;;;;;;;;;;5055987;28;1182;-66
2022/05/11 14:48:22;;;;;;;;;;;;;;;;;;5074094;28;837;-67
2022/05/11 14:50:47;;;;;;;;;;;;;;;;;;5056535;28;1343;-66
2022/05/11 14:53:12;;;;;;;;;;;;;;;;;;5074534;28;1902;-67
2022/05/11 14:55:38;;;;;;;;;;;;;;;;;;5039678;28;1264;-67
2022/05/11 15:03:33;;;;;;;;;;;;;;;;;;5059118;28;662;-67
2022/05/11 15:05:59;;;;;;;;;;;;;;;;;;5073620;28;1152;-66
2022/05/11 15:08:24;;;;;;;;;;;;;;;;;;5072727;28;1176;-66
2022/05/11 15:13:29;;;;;;;;;;;;;;;;;;5038873;28;1196;-66
2022/05/11 15:13:35;;;;;;;;;;;;;;;;;;5072474;28;1959;-66
2022/05/11 15:16:01;;;;;;;;;;;;;;;;;;5073129;28;1065;-66
2022/05/11 15:18:26;;;;;;;;;;;;;;;;;;5073445;28;1220;-66
2022/05/11 15:20:52;;;;;;;;;;;;;;;;;;5056230;28;817;-66
2022/05/11 15:23:17;;;;;;;;;;;;;;;;;;5074030;28;885;-67
2022/05/11 15:25:43;;;;;;;;;;;;;;;;;;5055539;28;1295;-67
2022/05/11 15:28:09;;;;;;;;;;;;;;;;;;5074285;28;794;-67
2022/05/11 15:30:35;;;;;;;;;;;;;;;;;;5073277;28;833;-67
2022/05/11 15:33:01;;;;;;;;;;;;;;;;;;5073312;28;1968;-67
2022/05/11 15:35:27;;;;;;;;;;;;;;;;;;5073194;28;898;-71
2022/05/11 15:37:53;;;;;;;;;;;;;;;;;;5072238;28;852;-67
2022/05/11 15:40:21;;;;;;;;;;;;;;;;;;5054554;28;1250;-67
2022/05/11 15:42:46;;;;;;;;;;;;;;;;;;5073141;28;904;-67
2022/05/11 15:45:13;;;;;;;;;;;;;;;;;;5055295;28;1078;-67
2022/05/11 15:47:39;;;;;;;;;;;;;;;;;;5072887;28;896;-67
2022/05/11 15:50:06;;;;;;;;;;;;;;;;;;5054716;28;1168;-67
2022/05/11 15:52:34;;;;;;;;;;;;;;;;;;5072299;28;1971;-67
2022/05/11 15:55:00;;;;;;;;;;;;;;;;;;5072881;28;853;-67
2022/05/11 15:57:25;;;;;;;;;;;;;;;;;;5072989;28;809;-67
2022/05/11 15:59:54;;;;;;;;;;;;;;;;;;5054433;28;1168;-67
2022/05/11 16:02:22;;;;;;;;;;;;;;;;;;5072708;28;918;-67
2022/05/11 16:04:48;;;;;;;;;;;;;;;;;;5072415;28;805;-71
2022/05/11 16:07:13;;;;;;;;;;;;;;;;;;5072388;28;876;-71
2022/05/11 16:09:39;;;;;;;;;;;;;;;;;;5037506;28;1362;-71
2022/05/11 16:12:06;;;;;;;;;;;;;;;;;;5054443;28;1433;-66
2022/05/11 16:14:31;;;;;;;;;;;;;;;;;;5072502;28;1894;-67
2022/05/11 16:16:56;;;;;;;;;;;;;;;;;;5072574;28;936;-66
2022/05/11 16:22:09;;;;;;;;;;;;;;;;;;5057266;28;714;-66
2022/05/11 16:24:34;;;;;;;;;;;;;;;;;;5054029;28;1275;-66
2022/05/11 16:26:59;;;;;;;;;;;;;;;;;;5072058;28;1385;-65
2022/05/11 16:29:25;;;;;;;;;;;;;;;;;;5072165;28;931;-64
2022/05/11 16:31:51;;;;;;;;;;;;;;;;;;5071527;28;837;-66
2022/05/11 16:34:17;;;;;;;;;;;;;;;;;;5054388;28;1910;-66
2022/05/11 16:36:42;;;;;;;;;;;;;;;;;;5071934;28;915;-66
2022/05/11 16:39:08;;;;;;;;;;;;;;;;;;5072092;28;999;-66
2022/05/11 16:41:34;;;;;;;;;;;;;;;;;;5054271;28;1330;-66
2022/05/11 16:43:59;;;;;;;;;;;;;;;;;;5072568;28;834;-65
2022/05/11 16:46:25;;;;;;;;;;;;;;;;;;5054390;28;1352;-65
2022/05/11 16:48:50;;;;;;;;;;;;;;;;;;5054049;28;873;-66
2022/05/11 16:51:15;;;;;;;;;;;;;;;;;;5053701;28;852;-65
2022/05/11 16:53:42;;;;;;;;;;;;;;;;;;5072207;28;1935;-65
2022/05/11 16:56:07;;;;;;;;;;;;;;;;;;5054441;28;884;-65
2022/05/11 16:58:33;;;;;;;;;;;;;;;;;;5072047;28;829;-66
2022/05/11 17:00:59;;;;;;;;;;;;;;;;;;5072567;28;935;-65
2022/05/11 17:03:24;;;;;;;;;;;;;;;;;;5072409;28;849;-65
2022/05/11 17:05:50;;;;;;;;;;;;;;;;;;5071703;28;952;-65
2022/05/11 17:08:16;;;;;;;;;;;;;;;;;;5053831;28;1176;-66
2022/05/11 17:10:41;;;;;;;;;;;;;;;;;;5071966;28;857;-66
2022/05/11 17:13:08;;;;;;;;;;;;;;;;;;5071911;28;1870;-66
2022/05/11 17:15:34;;;;;;;;;;;;;;;;;;5072341;28;865;-66
2022/05/11 17:17:59;;;;;;;;;;;;;;;;;;5071860;28;1026;-66
2022/05/11 17:20:24;;;;;;;;;;;;;;;;;;5037286;28;1440;-66
2022/05/11 17:22:50;;;;;;;;;;;;;;;;;;5053866;28;1274;-66
2022/05/11 17:25:15;;;;;;;;;;;;;;;;;;5072117;28;1008;-66
2022/05/11 17:27:42;;;;;;;;;;;;;;;;;;5053735;28;968;-66
2022/05/11 17:30:08;;;;;;;;;;;;;;;;;;5054117;28;837;-66
2022/05/11 17:32:34;;;;;;;;;;;;;;;;;;5071477;28;1898;-66
2022/05/11 17:35:00;;;;;;;;;;;;;;;;;;5071109;28;995;-66
2022/05/11 17:37:25;;;;;;;;;;;;;;;;;;5053970;28;888;-66
2022/05/11 17:39:50;;;;;;;;;;;;;;;;;;5071184;28;817;-66
2022/05/11 17:42:15;;;;;;;;;;;;;;;;;;5071698;28;951;-66
2022/05/11 17:44:41;;;;;;;;;;;;;;;;;;5053845;28;1356;-66
2022/05/11 17:47:07;;;;;;;;;;;;;;;;;;5053973;28;1190;-66
2022/05/11 17:49:32;;;;;;;;;;;;;;;;;;5053743;28;841;-66
2022/05/11 17:51:58;;;;;;;;;;;;;;;;;;5071510;28;871;-66
2022/05/11 17:54:23;;;;;;;;;;;;;;;;;;5071692;28;1902;-66
2022/05/11 17:56:48;;;;;;;;;;;;;;;;;;5071131;28;926;-66
2022/05/11 17:59:14;;;;;;;;;;;;;;;;;;5053311;28;1196;-66
2022/05/11 18:01:40;;;;;;;;;;;;;;;;;;5072339;28;817;-65
2022/05/11 18:04:05;;;;;;;;;;;;;;;;;;5040253;28;1231;-66